Ana Sayfa
METAR-TAF:

METAR-TAF

Havaalanları :

Pauls Valley, Oklahoma, Amerika Birleşik Devletleri

Enlem: 34-42-40N, Boylam: 097-13-24W, yükseklik: 295 m

Güncel hava durumu gözlemi

Rapor saat 03:15 UTC de 32 dakika önce yapıldı.
Rüzgar batı/güneybatıdan 5 kt
Sıcaklık 9°C
Nem 31%
Basınç 1023 hPa
Görüş mesafesi: 16.1 km
Açık gökyüzü

METAR: KPVJ 280315Z AUTO 25005KT 10SM CLR 09/M07 A3020 RMK AO2 T00861066

Saat: 21:47 (03:47 UTC)


TAF: eksik

4.000'den fazla havaalanı için hava durumu gözlemleri ve tahminleri (METAR ve TAF raporları).

Kullanılabilir istasyonlar harita üzerinde sarı ve kırmızı noktalarla gösterilir.

İstasyonun adını görmek için fareyi noktanın üzerinde gezdirin.

Sonrasında hava gözlem ve tahminlerini görmek için tıklayın.

Haritayı değiştirmek için: yaklaştırmak için siyah artı işaretli yeşil düğmeye ve uzaklaştırmak için de eksi işaretli düğmeye hızla tıklayın; bitişik haritalar için yeşil okları kullanın.


METAR-TAF: